sensor_id;sensor_type;location;lat;lon;timestamp;temperature;humidity
10316;DHT22;5203;48.976;8.306;2022-09-09T00:04:33;19.60;86.90
10316;DHT22;5203;48.976;8.306;2022-09-09T00:07:24;19.50;89.00
10316;DHT22;5203;48.976;8.306;2022-09-09T00:15:40;19.20;90.00
10316;DHT22;5203;48.976;8.306;2022-09-09T00:21:18;19.20;91.10
10316;DHT22;5203;48.976;8.306;2022-09-09T00:23:56;19.20;90.70
10316;DHT22;5203;48.976;8.306;2022-09-09T00:29:21;19.40;90.30
10316;DHT22;5203;48.976;8.306;2022-09-09T00:31:54;19.40;89.80
10316;DHT22;5203;48.976;8.306;2022-09-09T00:34:25;19.30;90.20
10316;DHT22;5203;48.976;8.306;2022-09-09T00:36:52;19.40;90.40
10316;DHT22;5203;48.976;8.306;2022-09-09T00:39:27;19.50;90.50
10316;DHT22;5203;48.976;8.306;2022-09-09T00:42:13;19.40;91.20
10316;DHT22;5203;48.976;8.306;2022-09-09T00:44:59;19.30;90.50
10316;DHT22;5203;48.976;8.306;2022-09-09T00:47:43;19.30;90.00
10316;DHT22;5203;48.976;8.306;2022-09-09T00:55:54;18.60;90.20
10316;DHT22;5203;48.976;8.306;2022-09-09T00:58:21;18.30;92.10
10316;DHT22;5203;48.976;8.306;2022-09-09T01:00:52;18.30;92.10
10316;DHT22;5203;48.976;8.306;2022-09-09T01:06:26;18.10;93.00
10316;DHT22;5203;48.976;8.306;2022-09-09T01:17:20;17.90;94.20
10316;DHT22;5203;48.976;8.306;2022-09-09T01:19:59;17.80;93.30
10316;DHT22;5203;48.976;8.306;2022-09-09T01:28:34;17.70;92.40
10316;DHT22;5203;48.976;8.306;2022-09-09T01:31:04;17.60;94.50
10316;DHT22;5203;48.976;8.306;2022-09-09T01:33:31;17.50;97.30
10316;DHT22;5203;48.976;8.306;2022-09-09T01:36:11;17.30;98.70
10316;DHT22;5203;48.976;8.306;2022-09-09T01:38:38;17.20;99.90
10316;DHT22;5203;48.976;8.306;2022-09-09T01:41:04;17.10;99.90
10316;DHT22;5203;48.976;8.306;2022-09-09T01:43:30;16.90;99.90
10316;DHT22;5203;48.976;8.306;2022-09-09T01:45:59;16.80;99.90
10316;DHT22;5203;48.976;8.306;2022-09-09T01:48:25;16.80;99.90
10316;DHT22;5203;48.976;8.306;2022-09-09T01:50:51;16.80;99.90
10316;DHT22;5203;48.976;8.306;2022-09-09T01:53:18;16.80;99.90
10316;DHT22;5203;48.976;8.306;2022-09-09T02:04:04;16.90;99.90
10316;DHT22;5203;48.976;8.306;2022-09-09T02:06:35;16.70;99.90
10316;DHT22;5203;48.976;8.306;2022-09-09T02:09:05;16.60;99.90
10316;DHT22;5203;48.976;8.306;2022-09-09T02:11:31;16.60;99.90
10316;DHT22;5203;48.976;8.306;2022-09-09T02:14:05;16.60;99.90
10316;DHT22;5203;48.976;8.306;2022-09-09T02:17:25;16.60;99.90
10316;DHT22;5203;48.976;8.306;2022-09-09T02:19:38;16.60;99.90
10316;DHT22;5203;48.976;8.306;2022-09-09T02:22:04;16.70;99.90
10316;DHT22;5203;48.976;8.306;2022-09-09T02:24:34;16.60;99.90
10316;DHT22;5203;48.976;8.306;2022-09-09T02:27:03;16.80;99.90
10316;DHT22;5203;48.976;8.306;2022-09-09T02:29:41;16.90;99.90
10316;DHT22;5203;48.976;8.306;2022-09-09T02:32:17;17.10;99.90
10316;DHT22;5203;48.976;8.306;2022-09-09T02:34:49;17.20;99.90
10316;DHT22;5203;48.976;8.306;2022-09-09T02:37:18;17.20;99.90
10316;DHT22;5203;48.976;8.306;2022-09-09T02:39:44;17.10;99.90
10316;DHT22;5203;48.976;8.306;2022-09-09T02:42:10;17.10;99.90
10316;DHT22;5203;48.976;8.306;2022-09-09T02:44:36;17.10;99.70
10316;DHT22;5203;48.976;8.306;2022-09-09T02:57:52;17.30;99.00
10316;DHT22;5203;48.976;8.306;2022-09-09T03:00:24;17.30;99.00
10316;DHT22;5203;48.976;8.306;2022-09-09T03:02:50;17.50;98.80
10316;DHT22;5203;48.976;8.306;2022-09-09T03:05:17;17.60;97.90
10316;DHT22;5203;48.976;8.306;2022-09-09T03:07:42;17.60;96.20
10316;DHT22;5203;48.976;8.306;2022-09-09T03:10:08;17.60;96.60
10316;DHT22;5203;48.976;8.306;2022-09-09T03:12:36;17.50;97.90
10316;DHT22;5203;48.976;8.306;2022-09-09T03:15:01;17.40;97.90
10316;DHT22;5203;48.976;8.306;2022-09-09T03:17:27;17.40;98.10
10316;DHT22;5203;48.976;8.306;2022-09-09T03:19:53;17.40;98.70
10316;DHT22;5203;48.976;8.306;2022-09-09T03:22:20;17.40;98.00
10316;DHT22;5203;48.976;8.306;2022-09-09T03:24:46;17.50;98.60
10316;DHT22;5203;48.976;8.306;2022-09-09T03:27:12;17.50;97.50
10316;DHT22;5203;48.976;8.306;2022-09-09T03:29:39;17.50;98.00
10316;DHT22;5203;48.976;8.306;2022-09-09T03:32:05;17.60;98.00
10316;DHT22;5203;48.976;8.306;2022-09-09T03:34:31;17.70;97.50
10316;DHT22;5203;48.976;8.306;2022-09-09T03:36:57;17.60;96.80
10316;DHT22;5203;48.976;8.306;2022-09-09T03:39:22;17.70;97.00
10316;DHT22;5203;48.976;8.306;2022-09-09T03:41:49;17.80;96.50
10316;DHT22;5203;48.976;8.306;2022-09-09T03:44:15;17.80;96.20
10316;DHT22;5203;48.976;8.306;2022-09-09T03:46:41;18.00;96.90
10316;DHT22;5203;48.976;8.306;2022-09-09T03:49:06;18.00;95.90
10316;DHT22;5203;48.976;8.306;2022-09-09T03:51:32;18.10;95.20
10316;DHT22;5203;48.976;8.306;2022-09-09T03:54:01;18.10;94.70
10316;DHT22;5203;48.976;8.306;2022-09-09T03:56:27;18.10;94.80
10316;DHT22;5203;48.976;8.306;2022-09-09T03:58:52;18.10;95.10
10316;DHT22;5203;48.976;8.306;2022-09-09T04:01:18;18.10;95.40
10316;DHT22;5203;48.976;8.306;2022-09-09T04:03:44;18.00;95.00
10316;DHT22;5203;48.976;8.306;2022-09-09T04:06:11;17.90;95.30
10316;DHT22;5203;48.976;8.306;2022-09-09T04:08:37;17.80;95.60
10316;DHT22;5203;48.976;8.306;2022-09-09T04:11:04;17.80;96.40
10316;DHT22;5203;48.976;8.306;2022-09-09T04:13:35;17.70;96.60
10316;DHT22;5203;48.976;8.306;2022-09-09T04:16:03;17.70;97.20
10316;DHT22;5203;48.976;8.306;2022-09-09T04:18:29;17.50;97.40
10316;DHT22;5203;48.976;8.306;2022-09-09T04:20:55;17.50;96.90
10316;DHT22;5203;48.976;8.306;2022-09-09T04:23:23;17.40;98.00
10316;DHT22;5203;48.976;8.306;2022-09-09T04:25:51;17.30;98.10
10316;DHT22;5203;48.976;8.306;2022-09-09T04:28:18;17.40;97.80
10316;DHT22;5203;48.976;8.306;2022-09-09T04:30:45;17.40;97.10
10316;DHT22;5203;48.976;8.306;2022-09-09T04:33:12;17.40;96.90
10316;DHT22;5203;48.976;8.306;2022-09-09T04:35:38;17.50;96.80
10316;DHT22;5203;48.976;8.306;2022-09-09T04:38:05;17.50;98.10
10316;DHT22;5203;48.976;8.306;2022-09-09T04:40:33;17.60;97.20
10316;DHT22;5203;48.976;8.306;2022-09-09T04:42:59;17.60;96.30
10316;DHT22;5203;48.976;8.306;2022-09-09T04:45:25;17.50;96.40
10316;DHT22;5203;48.976;8.306;2022-09-09T04:47:52;17.50;96.20
10316;DHT22;5203;48.976;8.306;2022-09-09T04:50:17;17.50;96.10
10316;DHT22;5203;48.976;8.306;2022-09-09T04:52:44;17.50;95.40
10316;DHT22;5203;48.976;8.306;2022-09-09T04:55:10;17.40;96.70
10316;DHT22;5203;48.976;8.306;2022-09-09T04:57:35;17.20;96.90
10316;DHT22;5203;48.976;8.306;2022-09-09T05:00:02;17.30;96.90
10316;DHT22;5203;48.976;8.306;2022-09-09T05:02:28;17.00;97.10
10316;DHT22;5203;48.976;8.306;2022-09-09T05:04:54;17.00;96.90
10316;DHT22;5203;48.976;8.306;2022-09-09T05:07:20;17.10;97.40
10316;DHT22;5203;48.976;8.306;2022-09-09T05:09:46;17.10;96.50
10316;DHT22;5203;48.976;8.306;2022-09-09T05:12:15;17.10;97.70
10316;DHT22;5203;48.976;8.306;2022-09-09T05:14:42;17.20;96.20
10316;DHT22;5203;48.976;8.306;2022-09-09T05:17:08;17.20;95.50
10316;DHT22;5203;48.976;8.306;2022-09-09T05:19:33;17.10;96.80
10316;DHT22;5203;48.976;8.306;2022-09-09T05:21:59;17.20;97.30
10316;DHT22;5203;48.976;8.306;2022-09-09T05:24:26;17.30;95.10
10316;DHT22;5203;48.976;8.306;2022-09-09T05:26:52;17.20;95.70
10316;DHT22;5203;48.976;8.306;2022-09-09T05:29:18;17.30;96.80
10316;DHT22;5203;48.976;8.306;2022-09-09T05:31:45;17.30;96.30
10316;DHT22;5203;48.976;8.306;2022-09-09T05:34:11;17.40;96.90
10316;DHT22;5203;48.976;8.306;2022-09-09T05:36:37;17.40;96.00
10316;DHT22;5203;48.976;8.306;2022-09-09T05:39:03;17.30;96.30
10316;DHT22;5203;48.976;8.306;2022-09-09T05:41:29;17.30;96.80
10316;DHT22;5203;48.976;8.306;2022-09-09T05:43:55;17.30;96.50
10316;DHT22;5203;48.976;8.306;2022-09-09T05:46:23;17.10;96.80
10316;DHT22;5203;48.976;8.306;2022-09-09T05:48:51;17.10;96.70
10316;DHT22;5203;48.976;8.306;2022-09-09T05:51:25;17.10;95.90
10316;DHT22;5203;48.976;8.306;2022-09-09T05:53:52;17.20;96.60
10316;DHT22;5203;48.976;8.306;2022-09-09T05:56:20;17.10;96.50
10316;DHT22;5203;48.976;8.306;2022-09-09T05:58:47;17.20;96.50
10316;DHT22;5203;48.976;8.306;2022-09-09T06:01:21;17.30;95.70
10316;DHT22;5203;48.976;8.306;2022-09-09T06:03:48;17.40;95.20
10316;DHT22;5203;48.976;8.306;2022-09-09T06:06:19;17.50;94.20
10316;DHT22;5203;48.976;8.306;2022-09-09T06:08:51;17.60;94.00
10316;DHT22;5203;48.976;8.306;2022-09-09T06:11:22;17.60;93.40
10316;DHT22;5203;48.976;8.306;2022-09-09T06:13:48;17.60;94.30
10316;DHT22;5203;48.976;8.306;2022-09-09T06:16:17;17.60;94.90
10316;DHT22;5203;48.976;8.306;2022-09-09T06:18:43;17.60;94.90
10316;DHT22;5203;48.976;8.306;2022-09-09T06:21:15;17.60;94.30
10316;DHT22;5203;48.976;8.306;2022-09-09T06:23:41;17.80;94.00
10316;DHT22;5203;48.976;8.306;2022-09-09T06:26:20;17.90;93.80
10316;DHT22;5203;48.976;8.306;2022-09-09T06:28:47;18.00;92.80
10316;DHT22;5203;48.976;8.306;2022-09-09T06:31:15;18.00;91.70
10316;DHT22;5203;48.976;8.306;2022-09-09T06:33:48;18.10;92.60
10316;DHT22;5203;48.976;8.306;2022-09-09T06:36:19;18.20;92.10
10316;DHT22;5203;48.976;8.306;2022-09-09T06:38:46;18.10;91.50
10316;DHT22;5203;48.976;8.306;2022-09-09T06:41:13;18.00;92.00
10316;DHT22;5203;48.976;8.306;2022-09-09T06:43:39;18.10;92.00
10316;DHT22;5203;48.976;8.306;2022-09-09T06:48:41;18.10;91.80
10316;DHT22;5203;48.976;8.306;2022-09-09T06:51:15;18.20;90.60
10316;DHT22;5203;48.976;8.306;2022-09-09T06:53:43;18.30;90.70
10316;DHT22;5203;48.976;8.306;2022-09-09T06:58:44;18.10;93.20
10316;DHT22;5203;48.976;8.306;2022-09-09T07:01:12;18.10;93.60
10316;DHT22;5203;48.976;8.306;2022-09-09T07:03:38;18.20;92.50
10316;DHT22;5203;48.976;8.306;2022-09-09T07:06:05;18.10;92.60
10316;DHT22;5203;48.976;8.306;2022-09-09T07:08:31;18.20;92.50
10316;DHT22;5203;48.976;8.306;2022-09-09T07:11:04;18.30;91.00
10316;DHT22;5203;48.976;8.306;2022-09-09T07:13:30;18.10;91.30
10316;DHT22;5203;48.976;8.306;2022-09-09T07:16:07;18.20;92.10
10316;DHT22;5203;48.976;8.306;2022-09-09T07:18:34;18.10;92.50
10316;DHT22;5203;48.976;8.306;2022-09-09T07:21:00;18.30;91.90
10316;DHT22;5203;48.976;8.306;2022-09-09T07:23:26;18.30;93.30
10316;DHT22;5203;48.976;8.306;2022-09-09T07:25:52;18.30;90.60
10316;DHT22;5203;48.976;8.306;2022-09-09T07:28:19;18.30;92.20
10316;DHT22;5203;48.976;8.306;2022-09-09T07:30:56;18.20;92.30
10316;DHT22;5203;48.976;8.306;2022-09-09T07:33:22;18.30;92.00
10316;DHT22;5203;48.976;8.306;2022-09-09T07:35:49;18.40;91.70
10316;DHT22;5203;48.976;8.306;2022-09-09T07:38:15;18.40;89.60
10316;DHT22;5203;48.976;8.306;2022-09-09T07:40:41;18.30;91.30
10316;DHT22;5203;48.976;8.306;2022-09-09T07:43:06;18.40;92.00
10316;DHT22;5203;48.976;8.306;2022-09-09T07:45:34;18.50;92.10
10316;DHT22;5203;48.976;8.306;2022-09-09T07:48:00;18.50;88.90
10316;DHT22;5203;48.976;8.306;2022-09-09T07:50:26;18.60;90.10
10316;DHT22;5203;48.976;8.306;2022-09-09T07:52:52;18.50;90.20
10316;DHT22;5203;48.976;8.306;2022-09-09T07:55:19;18.50;90.70
10316;DHT22;5203;48.976;8.306;2022-09-09T07:57:45;18.70;88.80
10316;DHT22;5203;48.976;8.306;2022-09-09T08:00:11;18.70;89.00
10316;DHT22;5203;48.976;8.306;2022-09-09T08:02:37;18.80;89.00
10316;DHT22;5203;48.976;8.306;2022-09-09T08:05:03;18.90;87.20
10316;DHT22;5203;48.976;8.306;2022-09-09T08:07:28;18.80;86.80
10316;DHT22;5203;48.976;8.306;2022-09-09T08:09:54;18.90;88.10
10316;DHT22;5203;48.976;8.306;2022-09-09T08:12:21;19.10;87.30
10316;DHT22;5203;48.976;8.306;2022-09-09T08:14:47;19.30;86.30
10316;DHT22;5203;48.976;8.306;2022-09-09T08:17:14;19.20;87.00
10316;DHT22;5203;48.976;8.306;2022-09-09T08:19:40;19.30;86.80
10316;DHT22;5203;48.976;8.306;2022-09-09T08:22:05;19.20;87.60
10316;DHT22;5203;48.976;8.306;2022-09-09T08:24:31;18.90;91.10
10316;DHT22;5203;48.976;8.306;2022-09-09T08:26:57;18.80;91.90
10316;DHT22;5203;48.976;8.306;2022-09-09T08:29:23;18.60;93.20
10316;DHT22;5203;48.976;8.306;2022-09-09T08:31:54;18.70;93.60
10316;DHT22;5203;48.976;8.306;2022-09-09T08:34:21;18.70;94.00
10316;DHT22;5203;48.976;8.306;2022-09-09T08:36:48;18.70;94.70
10316;DHT22;5203;48.976;8.306;2022-09-09T08:39:16;18.70;95.60
10316;DHT22;5203;48.976;8.306;2022-09-09T08:50:26;18.80;92.60
10316;DHT22;5203;48.976;8.306;2022-09-09T08:53:12;18.60;95.40
10316;DHT22;5203;48.976;8.306;2022-09-09T08:55:52;18.40;95.10
10316;DHT22;5203;48.976;8.306;2022-09-09T09:01:40;18.10;99.90
10316;DHT22;5203;48.976;8.306;2022-09-09T09:04:33;18.00;99.90
10316;DHT22;5203;48.976;8.306;2022-09-09T09:07:28;18.00;99.90
10316;DHT22;5203;48.976;8.306;2022-09-09T09:12:43;18.10;98.30
10316;DHT22;5203;48.976;8.306;2022-09-09T09:15:25;18.10;99.90
10316;DHT22;5203;48.976;8.306;2022-09-09T09:17:51;18.10;99.90
10316;DHT22;5203;48.976;8.306;2022-09-09T09:20:24;18.30;99.90
10316;DHT22;5203;48.976;8.306;2022-09-09T09:22:52;18.20;96.30
10316;DHT22;5203;48.976;8.306;2022-09-09T09:25:31;18.50;96.90
10316;DHT22;5203;48.976;8.306;2022-09-09T09:28:02;18.80;95.30
10316;DHT22;5203;48.976;8.306;2022-09-09T09:30:44;18.80;94.60
10316;DHT22;5203;48.976;8.306;2022-09-09T09:35:40;19.00;92.80
10316;DHT22;5203;48.976;8.306;2022-09-09T09:38:21;18.90;90.00
10316;DHT22;5203;48.976;8.306;2022-09-09T09:40:58;18.90;93.10
10316;DHT22;5203;48.976;8.306;2022-09-09T09:43:28;19.00;90.70
10316;DHT22;5203;48.976;8.306;2022-09-09T09:45:54;19.20;91.30
10316;DHT22;5203;48.976;8.306;2022-09-09T09:48:20;19.40;87.70
10316;DHT22;5203;48.976;8.306;2022-09-09T09:51:06;19.60;86.50
10316;DHT22;5203;48.976;8.306;2022-09-09T09:53:35;19.90;88.40
10316;DHT22;5203;48.976;8.306;2022-09-09T09:56:14;19.80;83.60
10316;DHT22;5203;48.976;8.306;2022-09-09T09:58:50;19.50;87.00
10316;DHT22;5203;48.976;8.306;2022-09-09T10:01:30;19.50;82.50
10316;DHT22;5203;48.976;8.306;2022-09-09T10:04:20;19.80;85.90
10316;DHT22;5203;48.976;8.306;2022-09-09T10:06:49;20.20;82.70
10316;DHT22;5203;48.976;8.306;2022-09-09T10:09:31;20.30;82.00
10316;DHT22;5203;48.976;8.306;2022-09-09T10:20:29;20.10;83.50
10316;DHT22;5203;48.976;8.306;2022-09-09T10:31:05;20.60;77.50
10316;DHT22;5203;48.976;8.306;2022-09-09T10:36:54;20.70;77.10
10316;DHT22;5203;48.976;8.306;2022-09-09T10:39:28;21.00;73.40
10316;DHT22;5203;48.976;8.306;2022-09-09T10:42:08;21.30;73.50
10316;DHT22;5203;48.976;8.306;2022-09-09T10:47:37;21.20;72.10
10316;DHT22;5203;48.976;8.306;2022-09-09T10:53:16;21.90;67.90
10316;DHT22;5203;48.976;8.306;2022-09-09T10:55:50;21.80;66.30
10316;DHT22;5203;48.976;8.306;2022-09-09T11:01:45;21.90;66.00
10316;DHT22;5203;48.976;8.306;2022-09-09T11:04:25;22.40;65.10
10316;DHT22;5203;48.976;8.306;2022-09-09T11:06:55;22.60;65.60
10316;DHT22;5203;48.976;8.306;2022-09-09T11:09:31;22.70;62.10
10316;DHT22;5203;48.976;8.306;2022-09-09T11:12:00;22.90;61.40
10316;DHT22;5203;48.976;8.306;2022-09-09T11:14:37;22.70;62.10
10316;DHT22;5203;48.976;8.306;2022-09-09T11:17:08;23.20;58.70
10316;DHT22;5203;48.976;8.306;2022-09-09T11:19:42;23.00;60.20
10316;DHT22;5203;48.976;8.306;2022-09-09T11:40:44;23.90;60.60
10316;DHT22;5203;48.976;8.306;2022-09-09T11:43:17;23.20;63.50
10316;DHT22;5203;48.976;8.306;2022-09-09T11:45:51;22.40;66.20
10316;DHT22;5203;48.976;8.306;2022-09-09T11:48:35;22.20;68.00
10316;DHT22;5203;48.976;8.306;2022-09-09T11:51:07;22.30;67.80
10316;DHT22;5203;48.976;8.306;2022-09-09T11:53:57;22.90;66.50
10316;DHT22;5203;48.976;8.306;2022-09-09T11:56:32;23.40;62.20
10316;DHT22;5203;48.976;8.306;2022-09-09T11:59:05;24.10;60.00
10316;DHT22;5203;48.976;8.306;2022-09-09T12:01:39;24.00;59.30
10316;DHT22;5203;48.976;8.306;2022-09-09T12:04:30;23.70;59.60
10316;DHT22;5203;48.976;8.306;2022-09-09T12:11:51;22.70;59.70
10316;DHT22;5203;48.976;8.306;2022-09-09T12:17:17;22.50;61.30
10316;DHT22;5203;48.976;8.306;2022-09-09T12:19:44;22.50;60.30
10316;DHT22;5203;48.976;8.306;2022-09-09T12:22:27;22.60;61.30
10316;DHT22;5203;48.976;8.306;2022-09-09T12:25:16;22.40;61.50
10316;DHT22;5203;48.976;8.306;2022-09-09T12:27:58;22.30;62.50
10316;DHT22;5203;48.976;8.306;2022-09-09T12:30:53;22.20;63.00
10316;DHT22;5203;48.976;8.306;2022-09-09T12:33:20;22.10;65.10
10316;DHT22;5203;48.976;8.306;2022-09-09T12:35:57;22.30;68.30
10316;DHT22;5203;48.976;8.306;2022-09-09T12:38:36;22.40;68.50
10316;DHT22;5203;48.976;8.306;2022-09-09T12:41:02;22.90;66.80
10316;DHT22;5203;48.976;8.306;2022-09-09T12:43:28;23.40;59.80
10316;DHT22;5203;48.976;8.306;2022-09-09T12:46:08;23.80;59.70
10316;DHT22;5203;48.976;8.306;2022-09-09T12:48:40;24.10;55.50
10316;DHT22;5203;48.976;8.306;2022-09-09T12:51:28;23.40;56.80
10316;DHT22;5203;48.976;8.306;2022-09-09T12:53:55;22.80;59.70
10316;DHT22;5203;48.976;8.306;2022-09-09T12:56:23;22.20;65.50
10316;DHT22;5203;48.976;8.306;2022-09-09T12:58:53;21.70;68.00
10316;DHT22;5203;48.976;8.306;2022-09-09T13:01:31;21.50;68.20
10316;DHT22;5203;48.976;8.306;2022-09-09T13:03:59;21.50;67.10
10316;DHT22;5203;48.976;8.306;2022-09-09T13:06:27;21.50;67.90
10316;DHT22;5203;48.976;8.306;2022-09-09T13:08:54;21.50;66.30
10316;DHT22;5203;48.976;8.306;2022-09-09T13:11:27;21.50;68.50
10316;DHT22;5203;48.976;8.306;2022-09-09T13:13:56;21.60;68.70
10316;DHT22;5203;48.976;8.306;2022-09-09T13:16:29;21.80;69.40
10316;DHT22;5203;48.976;8.306;2022-09-09T13:19:00;22.10;67.70
10316;DHT22;5203;48.976;8.306;2022-09-09T13:21:37;22.50;66.30
10316;DHT22;5203;48.976;8.306;2022-09-09T13:24:28;22.90;62.40
10316;DHT22;5203;48.976;8.306;2022-09-09T13:26:59;23.80;59.50
10316;DHT22;5203;48.976;8.306;2022-09-09T13:29:27;25.10;54.70
10316;DHT22;5203;48.976;8.306;2022-09-09T13:31:53;25.40;54.40
10316;DHT22;5203;48.976;8.306;2022-09-09T13:34:32;25.30;54.50
10316;DHT22;5203;48.976;8.306;2022-09-09T13:37:27;25.00;54.60
10316;DHT22;5203;48.976;8.306;2022-09-09T13:39:54;24.40;57.20
10316;DHT22;5203;48.976;8.306;2022-09-09T13:42:28;24.20;57.70
10316;DHT22;5203;48.976;8.306;2022-09-09T13:44:56;24.10;60.00
10316;DHT22;5203;48.976;8.306;2022-09-09T13:47:32;24.00;61.50
10316;DHT22;5203;48.976;8.306;2022-09-09T13:49:58;23.70;67.00
10316;DHT22;5203;48.976;8.306;2022-09-09T13:52:30;23.30;67.50
10316;DHT22;5203;48.976;8.306;2022-09-09T13:54:57;23.20;68.70
10316;DHT22;5203;48.976;8.306;2022-09-09T13:57:25;23.30;68.00
10316;DHT22;5203;48.976;8.306;2022-09-09T13:59:52;23.20;67.10
10316;DHT22;5203;48.976;8.306;2022-09-09T14:02:20;23.00;68.10
10316;DHT22;5203;48.976;8.306;2022-09-09T14:04:48;22.90;72.20
10316;DHT22;5203;48.976;8.306;2022-09-09T14:07:17;22.40;78.10
10316;DHT22;5203;48.976;8.306;2022-09-09T14:09:43;21.40;78.80
10316;DHT22;5203;48.976;8.306;2022-09-09T14:12:11;20.90;77.50
10316;DHT22;5203;48.976;8.306;2022-09-09T14:14:37;20.80;82.30
10316;DHT22;5203;48.976;8.306;2022-09-09T14:17:03;20.70;82.80
10316;DHT22;5203;48.976;8.306;2022-09-09T14:19:29;20.70;86.10
10316;DHT22;5203;48.976;8.306;2022-09-09T14:21:56;20.70;83.40
10316;DHT22;5203;48.976;8.306;2022-09-09T14:24:22;20.40;89.30
10316;DHT22;5203;48.976;8.306;2022-09-09T14:26:48;20.40;87.10
10316;DHT22;5203;48.976;8.306;2022-09-09T14:29:13;20.50;87.40
10316;DHT22;5203;48.976;8.306;2022-09-09T14:31:39;20.60;89.10
10316;DHT22;5203;48.976;8.306;2022-09-09T14:34:05;20.50;93.80
10316;DHT22;5203;48.976;8.306;2022-09-09T14:36:31;20.50;91.80
10316;DHT22;5203;48.976;8.306;2022-09-09T14:38:57;20.60;92.40
10316;DHT22;5203;48.976;8.306;2022-09-09T14:41:24;20.70;90.40
10316;DHT22;5203;48.976;8.306;2022-09-09T14:43:50;20.80;91.10
10316;DHT22;5203;48.976;8.306;2022-09-09T14:46:18;20.30;90.30
10316;DHT22;5203;48.976;8.306;2022-09-09T14:48:45;19.80;89.00
10316;DHT22;5203;48.976;8.306;2022-09-09T14:51:23;19.40;92.40
10316;DHT22;5203;48.976;8.306;2022-09-09T14:53:54;19.40;96.30
10316;DHT22;5203;48.976;8.306;2022-09-09T14:56:22;19.60;95.30
10316;DHT22;5203;48.976;8.306;2022-09-09T14:58:49;19.80;89.20
10316;DHT22;5203;48.976;8.306;2022-09-09T15:01:17;19.90;92.80
10316;DHT22;5203;48.976;8.306;2022-09-09T15:03:57;20.20;89.60
10316;DHT22;5203;48.976;8.306;2022-09-09T15:06:28;20.30;89.10
10316;DHT22;5203;48.976;8.306;2022-09-09T15:08:55;20.50;86.00
10316;DHT22;5203;48.976;8.306;2022-09-09T15:11:27;20.60;89.20
10316;DHT22;5203;48.976;8.306;2022-09-09T15:13:53;20.70;88.70
10316;DHT22;5203;48.976;8.306;2022-09-09T15:16:21;20.80;89.30
10316;DHT22;5203;48.976;8.306;2022-09-09T15:18:51;20.90;92.10
10316;DHT22;5203;48.976;8.306;2022-09-09T15:21:19;21.40;88.50
10316;DHT22;5203;48.976;8.306;2022-09-09T15:23:45;21.80;84.60
10316;DHT22;5203;48.976;8.306;2022-09-09T15:26:13;22.40;82.20
10316;DHT22;5203;48.976;8.306;2022-09-09T15:28:43;22.90;81.90
10316;DHT22;5203;48.976;8.306;2022-09-09T15:31:15;22.90;78.60
10316;DHT22;5203;48.976;8.306;2022-09-09T15:33:47;23.00;78.80
10316;DHT22;5203;48.976;8.306;2022-09-09T15:36:24;23.20;76.60
10316;DHT22;5203;48.976;8.306;2022-09-09T15:38:51;23.80;75.10
10316;DHT22;5203;48.976;8.306;2022-09-09T15:41:18;23.30;76.20
10316;DHT22;5203;48.976;8.306;2022-09-09T15:43:46;23.00;76.10
10316;DHT22;5203;48.976;8.306;2022-09-09T15:48:50;22.10;76.70
10316;DHT22;5203;48.976;8.306;2022-09-09T15:51:16;22.00;77.40
10316;DHT22;5203;48.976;8.306;2022-09-09T15:53:42;21.80;82.20
10316;DHT22;5203;48.976;8.306;2022-09-09T15:56:09;21.60;80.20
10316;DHT22;5203;48.976;8.306;2022-09-09T15:58:35;21.20;80.50
10316;DHT22;5203;48.976;8.306;2022-09-09T16:01:10;20.80;81.60
10316;DHT22;5203;48.976;8.306;2022-09-09T16:03:41;20.10;80.80
10316;DHT22;5203;48.976;8.306;2022-09-09T16:06:12;19.90;82.40
10316;DHT22;5203;48.976;8.306;2022-09-09T16:08:43;19.60;83.60
10316;DHT22;5203;48.976;8.306;2022-09-09T16:11:13;19.40;82.50
10316;DHT22;5203;48.976;8.306;2022-09-09T16:13:41;19.40;86.00
10316;DHT22;5203;48.976;8.306;2022-09-09T16:16:09;19.40;83.80
10316;DHT22;5203;48.976;8.306;2022-09-09T16:18:44;19.40;82.00
10316;DHT22;5203;48.976;8.306;2022-09-09T16:21:18;19.30;84.00
10316;DHT22;5203;48.976;8.306;2022-09-09T16:23:45;19.10;81.80
10316;DHT22;5203;48.976;8.306;2022-09-09T16:26:13;19.00;84.10
10316;DHT22;5203;48.976;8.306;2022-09-09T16:28:40;18.90;84.30
10316;DHT22;5203;48.976;8.306;2022-09-09T16:31:07;19.00;82.80
10316;DHT22;5203;48.976;8.306;2022-09-09T16:33:33;19.10;84.10
10316;DHT22;5203;48.976;8.306;2022-09-09T16:36:08;19.20;82.70
10316;DHT22;5203;48.976;8.306;2022-09-09T16:38:33;19.30;84.40
10316;DHT22;5203;48.976;8.306;2022-09-09T16:41:01;19.40;83.40
10316;DHT22;5203;48.976;8.306;2022-09-09T16:43:27;19.50;81.30
10316;DHT22;5203;48.976;8.306;2022-09-09T16:45:53;19.70;83.10
10316;DHT22;5203;48.976;8.306;2022-09-09T16:48:19;19.60;81.20
10316;DHT22;5203;48.976;8.306;2022-09-09T16:50:45;19.60;81.00
10316;DHT22;5203;48.976;8.306;2022-09-09T16:53:12;19.70;82.40
10316;DHT22;5203;48.976;8.306;2022-09-09T16:55:39;19.70;82.70
10316;DHT22;5203;48.976;8.306;2022-09-09T16:58:06;19.80;80.40
10316;DHT22;5203;48.976;8.306;2022-09-09T17:00:32;19.80;80.90
10316;DHT22;5203;48.976;8.306;2022-09-09T17:02:59;19.70;80.70
10316;DHT22;5203;48.976;8.306;2022-09-09T17:05:25;19.40;81.20
10316;DHT22;5203;48.976;8.306;2022-09-09T17:07:50;19.30;81.50
10316;DHT22;5203;48.976;8.306;2022-09-09T17:10:17;19.20;84.70
10316;DHT22;5203;48.976;8.306;2022-09-09T17:12:42;19.00;84.50
10316;DHT22;5203;48.976;8.306;2022-09-09T17:15:08;18.90;84.30
10316;DHT22;5203;48.976;8.306;2022-09-09T17:17:35;18.80;85.10
10316;DHT22;5203;48.976;8.306;2022-09-09T17:20:01;18.80;85.40
10316;DHT22;5203;48.976;8.306;2022-09-09T17:22:27;18.80;86.00
10316;DHT22;5203;48.976;8.306;2022-09-09T17:24:54;18.80;85.20
10316;DHT22;5203;48.976;8.306;2022-09-09T17:27:20;18.80;86.40
10316;DHT22;5203;48.976;8.306;2022-09-09T17:29:46;18.80;85.60
10316;DHT22;5203;48.976;8.306;2022-09-09T17:32:12;18.80;86.60
10316;DHT22;5203;48.976;8.306;2022-09-09T17:34:38;18.80;87.40
10316;DHT22;5203;48.976;8.306;2022-09-09T17:37:04;18.80;86.50
10316;DHT22;5203;48.976;8.306;2022-09-09T17:39:31;18.80;86.60
10316;DHT22;5203;48.976;8.306;2022-09-09T17:41:57;19.00;87.10
10316;DHT22;5203;48.976;8.306;2022-09-09T17:44:23;19.10;86.40
10316;DHT22;5203;48.976;8.306;2022-09-09T17:46:49;19.20;85.80
10316;DHT22;5203;48.976;8.306;2022-09-09T17:49:16;19.20;84.80
10316;DHT22;5203;48.976;8.306;2022-09-09T17:51:45;19.30;86.50
10316;DHT22;5203;48.976;8.306;2022-09-09T17:54:15;19.20;86.10
10316;DHT22;5203;48.976;8.306;2022-09-09T17:56:42;19.20;87.60
10316;DHT22;5203;48.976;8.306;2022-09-09T17:59:09;19.20;87.20
10316;DHT22;5203;48.976;8.306;2022-09-09T18:01:38;19.20;87.30
10316;DHT22;5203;48.976;8.306;2022-09-09T18:04:05;19.00;88.00
10316;DHT22;5203;48.976;8.306;2022-09-09T18:06:37;19.00;87.60
10316;DHT22;5203;48.976;8.306;2022-09-09T18:09:06;19.00;88.50
10316;DHT22;5203;48.976;8.306;2022-09-09T18:11:35;19.00;87.80
10316;DHT22;5203;48.976;8.306;2022-09-09T18:14:04;18.90;88.20
10316;DHT22;5203;48.976;8.306;2022-09-09T18:16:32;18.90;89.40
10316;DHT22;5203;48.976;8.306;2022-09-09T18:19:04;19.00;90.10